createdAt,value
2023-01-15T00:00:19.165Z,99876.16
2023-01-15T00:02:45.623Z,99869.28
2023-01-15T00:05:12.186Z,99878.63
2023-01-15T00:07:38.816Z,99876.78
2023-01-15T00:10:05.891Z,99872.41
2023-01-15T00:12:32.427Z,99881.84
2023-01-15T00:14:58.809Z,99879.34
2023-01-15T00:17:25.340Z,99887.09
2023-01-15T00:19:51.821Z,99877.66
2023-01-15T00:22:18.706Z,99886.28
2023-01-15T00:25:03.602Z,99879.59
2023-01-15T00:27:38.617Z,99876.38
2023-01-15T00:30:06.990Z,99878.91
2023-01-15T00:32:33.552Z,99872.16
2023-01-15T00:35:00.386Z,99875.63
2023-01-15T00:37:27.351Z,99876.53
2023-01-15T00:39:53.845Z,99876.59
2023-01-15T00:42:20.209Z,99879.97
2023-01-15T00:44:47.358Z,99878.28
2023-01-15T00:47:15.171Z,99874.88
2023-01-15T00:49:42.426Z,99873.28
2023-01-15T00:52:10.104Z,99871.59
2023-01-15T00:54:36.481Z,99873.28
2023-01-15T00:57:03.174Z,99869.94
2023-01-15T00:59:29.612Z,99873.28
2023-01-15T01:01:56.117Z,99875.78
2023-01-15T01:04:22.542Z,99882.50
2023-01-15T01:06:48.928Z,99874.97
2023-01-15T01:09:16.666Z,99876.59
2023-01-15T01:11:43.450Z,99880.88
2023-01-15T01:14:11.888Z,99868.06
2023-01-15T01:16:40.798Z,99868.13
2023-01-15T01:19:14.174Z,99880.19
2023-01-15T01:21:42.290Z,99875.94
2023-01-15T01:24:12.381Z,99873.41
2023-01-15T01:26:39.205Z,99871.75
2023-01-15T01:29:05.682Z,99881.75
2023-01-15T01:31:32.309Z,99888.66
2023-01-15T01:33:59.589Z,99882.72
2023-01-15T01:36:29.526Z,99882.66
2023-01-15T01:38:56.135Z,99878.50
2023-01-15T01:41:23.171Z,99889.72
2023-01-15T01:44:04.948Z,99887.19
2023-01-15T01:46:34.058Z,99888.13
2023-01-15T01:49:06.445Z,99888.97
2023-01-15T01:51:39.577Z,99894.00
2023-01-15T01:54:07.600Z,99892.38
2023-01-15T01:56:36.028Z,99906.09
2023-01-15T01:59:03.702Z,99906.03
2023-01-15T02:01:30.614Z,99908.53
2023-01-15T02:03:57.775Z,99900.72
2023-01-15T02:06:26.324Z,99899.22
2023-01-15T02:08:52.987Z,99890.84
2023-01-15T02:11:21.897Z,99878.81
2023-01-15T02:14:02.712Z,99889.88
2023-01-15T02:16:56.456Z,99894.97
2023-01-15T02:19:41.447Z,99873.81
2023-01-15T02:22:23.174Z,99873.00
2023-01-15T02:25:10.472Z,99877.19
2023-01-15T02:27:42.217Z,99876.38
2023-01-15T02:30:32.101Z,99872.94
2023-01-15T02:33:08.035Z,99882.38
2023-01-15T02:35:37.204Z,99885.00
2023-01-15T02:38:08.281Z,99884.16
2023-01-15T02:40:37.155Z,99881.66
2023-01-15T02:43:05.746Z,99879.28
2023-01-15T02:45:36.907Z,99884.34
2023-01-15T02:48:12.196Z,99891.09
2023-01-15T02:50:44.400Z,99875.72
2023-01-15T02:53:17.890Z,99881.78
2023-01-15T02:55:49.447Z,99874.34
2023-01-15T02:58:24.187Z,99879.44
2023-01-15T03:00:55.251Z,99878.63
2023-01-15T03:03:31.208Z,99875.38
2023-01-15T03:06:04.181Z,99887.38
2023-01-15T03:08:31.160Z,99866.13
2023-01-15T03:11:07.996Z,99867.72
2023-01-15T03:13:44.564Z,99867.78
2023-01-15T03:16:40.072Z,99869.34
2023-01-15T03:19:15.484Z,99863.38
2023-01-15T03:22:04.942Z,99867.63
2023-01-15T03:24:43.778Z,99882.09
2023-01-15T03:27:10.994Z,99871.69
2023-01-15T03:29:44.969Z,99877.66
2023-01-15T03:32:11.790Z,99867.41
2023-01-15T03:34:43.704Z,99869.09
2023-01-15T03:37:10.773Z,99866.69
2023-01-15T03:39:37.394Z,99864.25
2023-01-15T03:42:34.855Z,99854.16
2023-01-15T03:45:18.578Z,99862.78
2023-01-15T03:48:05.311Z,99868.94
2023-01-15T03:50:34.778Z,99873.25
2023-01-15T03:53:15.779Z,99876.78
2023-01-15T03:55:45.153Z,99869.91
2023-01-15T03:58:18.718Z,99873.25
2023-01-15T04:00:51.247Z,99864.00
2023-01-15T04:03:20.271Z,99854.63
2023-01-15T04:05:48.657Z,99865.78
2023-01-15T04:08:17.994Z,99859.78
2023-01-15T04:10:55.942Z,99854.56
2023-01-15T04:13:23.438Z,99851.19
2023-01-15T04:15:50.278Z,99864.75
2023-01-15T04:18:16.819Z,99866.59
2023-01-15T04:20:43.706Z,99854.81
2023-01-15T04:23:10.192Z,99863.38
2023-01-15T04:25:37.177Z,99861.59
2023-01-15T04:28:03.745Z,99863.22
2023-01-15T04:30:30.184Z,99859.66
2023-01-15T04:32:56.753Z,99863.94
2023-01-15T04:35:23.183Z,99852.97
2023-01-15T04:37:49.550Z,99851.19
2023-01-15T04:40:34.579Z,99846.94
2023-01-15T04:43:19.953Z,99859.72
2023-01-15T04:45:46.504Z,99847.13
2023-01-15T04:48:13.095Z,99848.09
2023-01-15T04:50:40.539Z,99846.16
2023-01-15T04:53:07.139Z,99855.69
2023-01-15T04:55:33.576Z,99855.78
2023-01-15T04:57:59.942Z,99851.66
2023-01-15T05:00:26.342Z,99860.16
2023-01-15T05:02:52.769Z,99851.66
2023-01-15T05:05:19.362Z,99855.00
2023-01-15T05:07:45.725Z,99860.13
2023-01-15T05:10:12.290Z,99863.38
2023-01-15T05:12:38.751Z,99859.88
2023-01-15T05:15:05.867Z,99860.84
2023-01-15T05:17:33.238Z,99854.09
2023-01-15T05:19:59.779Z,99853.28
2023-01-15T05:22:26.300Z,99851.59
2023-01-15T05:24:52.676Z,99843.06
2023-01-15T05:27:21.463Z,99847.19
2023-01-15T05:29:47.979Z,99849.78
2023-01-15T05:32:14.474Z,99844.88
2023-01-15T05:34:40.959Z,99842.44
2023-01-15T05:37:07.450Z,99840.03
2023-01-15T05:39:33.988Z,99846.84
2023-01-15T05:42:00.414Z,99845.22
2023-01-15T05:44:29.705Z,99841.13
2023-01-15T05:46:59.146Z,99834.31
2023-01-15T05:49:27.624Z,99834.38
2023-01-15T05:51:55.041Z,99840.38
2023-01-15T05:54:26.607Z,99838.69
2023-01-15T05:56:53.754Z,99835.25
2023-01-15T05:59:23.419Z,99854.03
2023-01-15T06:01:50.167Z,99839.75
2023-01-15T06:04:21.517Z,99849.13
2023-01-15T06:06:49.953Z,99844.06
2023-01-15T06:09:16.971Z,99838.06
2023-01-15T06:11:43.465Z,99849.84
2023-01-15T06:14:12.212Z,99848.06
2023-01-15T06:16:41.189Z,99839.69
2023-01-15T06:19:09.020Z,99835.47
2023-01-15T06:21:36.341Z,99861.84
2023-01-15T06:24:04.109Z,99867.91
2023-01-15T06:26:30.595Z,99864.59
2023-01-15T06:28:57.118Z,99866.50
2023-01-15T06:31:26.778Z,99877.66
2023-01-15T06:33:53.835Z,99887.16
2023-01-15T06:36:22.710Z,99894.00
2023-01-15T06:38:50.114Z,99878.00
2023-01-15T06:41:38.042Z,99878.28
2023-01-15T06:44:23.440Z,99876.91
2023-01-15T06:47:09.318Z,99879.53
2023-01-15T06:49:37.221Z,99874.63
2023-01-15T06:52:04.891Z,99871.34
2023-01-15T06:54:31.740Z,99871.53
2023-01-15T06:56:58.287Z,99869.22
2023-01-15T06:59:24.760Z,99863.44
2023-01-15T07:01:51.234Z,99868.72
2023-01-15T07:04:17.751Z,99863.84
2023-01-15T07:06:44.211Z,99864.75
2023-01-15T07:09:10.820Z,99865.56
2023-01-15T07:11:49.411Z,99867.13
2023-01-15T07:14:21.269Z,99871.31
2023-01-15T07:16:48.562Z,99871.34
2023-01-15T07:19:15.564Z,99870.50
2023-01-15T07:21:42.865Z,99864.50
2023-01-15T07:24:13.999Z,99862.78
2023-01-15T07:26:41.692Z,99862.00
2023-01-15T07:29:08.158Z,99878.91
2023-01-15T07:31:34.958Z,99873.78
2023-01-15T07:34:01.465Z,99864.56
2023-01-15T07:36:27.897Z,99863.72
2023-01-15T07:38:54.369Z,99863.72
2023-01-15T07:41:39.689Z,99866.31
2023-01-15T07:44:25.134Z,99874.81
2023-01-15T07:47:09.970Z,99873.84
2023-01-15T07:49:51.250Z,99877.22
2023-01-15T07:52:20.881Z,99876.38
2023-01-15T07:54:48.833Z,99866.28
2023-01-15T07:57:19.004Z,99860.44
2023-01-15T07:59:45.388Z,99855.31
2023-01-15T08:02:13.053Z,99859.50
2023-01-15T08:04:40.144Z,99862.78
2023-01-15T08:07:06.651Z,99856.78
2023-01-15T08:09:33.188Z,99856.84
2023-01-15T08:12:19.387Z,99855.03
2023-01-15T08:15:05.045Z,99858.34
2023-01-15T08:17:38.084Z,99865.91
2023-01-15T08:20:06.296Z,99876.03
2023-01-15T08:22:33.300Z,99865.91
2023-01-15T08:24:59.795Z,99868.28
2023-01-15T08:27:27.067Z,99864.00
2023-01-15T08:29:53.516Z,99864.88
2023-01-15T08:32:20.306Z,99870.69
2023-01-15T08:34:46.752Z,99866.38
2023-01-15T08:37:13.346Z,99864.53
2023-01-15T08:39:39.733Z,99857.66
2023-01-15T08:42:06.207Z,99862.50
2023-01-15T08:44:33.086Z,99853.88
2023-01-15T08:46:59.812Z,99862.00
2023-01-15T08:49:26.303Z,99853.22
2023-01-15T08:51:52.967Z,99852.69
2023-01-15T08:54:21.279Z,99855.41
2023-01-15T08:56:48.344Z,99856.31
2023-01-15T08:59:15.014Z,99849.31
2023-01-15T09:01:42.029Z,99852.94
2023-01-15T09:04:13.300Z,99842.00
2023-01-15T09:06:39.747Z,99845.28
2023-01-15T09:09:06.211Z,99847.91
2023-01-15T09:11:32.732Z,99859.38
2023-01-15T09:13:59.115Z,99860.81
2023-01-15T09:16:27.634Z,99865.19
2023-01-15T09:18:54.516Z,99857.84
2023-01-15T09:21:20.988Z,99858.41
2023-01-15T09:23:47.371Z,99855.53
2023-01-15T09:26:43.304Z,99872.66
2023-01-15T09:29:10.391Z,99869.16
2023-01-15T09:31:36.813Z,99858.78
2023-01-15T09:34:03.583Z,99863.56
2023-01-15T09:36:32.956Z,99863.31
2023-01-15T09:39:01.007Z,99867.38
2023-01-15T09:42:05.134Z,99861.13
2023-01-15T09:44:50.326Z,99868.19
2023-01-15T09:47:19.713Z,99859.00
2023-01-15T09:50:21.598Z,99872.53
2023-01-15T09:53:02.361Z,99855.44
2023-01-15T09:55:31.664Z,99860.53
2023-01-15T09:58:01.545Z,99859.00
2023-01-15T10:00:34.719Z,99865.13
2023-01-15T10:03:21.395Z,99869.34
2023-01-15T10:05:53.767Z,99870.19
2023-01-15T10:08:24.490Z,99861.56
2023-01-15T10:10:56.546Z,99861.19
2023-01-15T10:13:55.971Z,99857.78
2023-01-15T10:16:25.085Z,99855.88
2023-01-15T10:18:52.825Z,99853.78
2023-01-15T10:21:30.123Z,99845.41
2023-01-15T10:24:05.738Z,99851.25
2023-01-15T10:27:05.230Z,99858.50
2023-01-15T10:29:54.456Z,99857.50
2023-01-15T10:33:00.985Z,99872.84
2023-01-15T10:35:40.531Z,99862.16
2023-01-15T10:38:28.713Z,99862.06
2023-01-15T10:41:10.357Z,99880.72
2023-01-15T10:43:57.429Z,99872.06
2023-01-15T10:46:27.588Z,99869.19
2023-01-15T10:49:03.808Z,99878.91
2023-01-15T10:51:37.423Z,99872.59
2023-01-15T10:54:29.874Z,99891.78
2023-01-15T10:58:01.876Z,99881.47
2023-01-15T11:00:37.633Z,99885.88
2023-01-15T11:03:11.842Z,99885.13
2023-01-15T11:05:38.895Z,99886.56
2023-01-15T11:08:58.422Z,99892.78
2023-01-15T11:10:59.334Z,99887.59
2023-01-15T11:13:45.120Z,99886.16
2023-01-15T11:16:44.840Z,99891.44
2023-01-15T11:19:38.353Z,99882.34
2023-01-15T11:22:17.507Z,99881.69
2023-01-15T11:24:52.032Z,99873.41
2023-01-15T11:27:22.536Z,99863.13
2023-01-15T11:29:54.753Z,99880.84
2023-01-15T11:32:31.961Z,99889.22
2023-01-15T11:35:13.659Z,99883.38
2023-01-15T11:37:40.059Z,99889.56
2023-01-15T11:40:18.664Z,99889.78
2023-01-15T11:43:08.705Z,99894.22
2023-01-15T11:46:04.501Z,99909.53
2023-01-15T11:48:53.834Z,99897.06
2023-01-15T11:51:20.408Z,99882.78
2023-01-15T11:53:52.127Z,99879.31
2023-01-15T11:56:23.878Z,99882.03
2023-01-15T11:58:53.015Z,99879.31
2023-01-15T12:01:46.119Z,99875.56
2023-01-15T12:04:47.113Z,99876.47
2023-01-15T12:07:14.354Z,99871.50
2023-01-15T12:09:47.901Z,99870.50
2023-01-15T12:12:34.138Z,99862.78
2023-01-15T12:15:18.556Z,99869.69
2023-01-15T12:18:14.089Z,99864.00
2023-01-15T12:21:12.365Z,99867.72
2023-01-15T12:24:00.046Z,99881.00
2023-01-15T12:26:34.555Z,99882.09
2023-01-15T12:29:14.962Z,99872.69
2023-01-15T12:31:50.798Z,99869.59
2023-01-15T12:34:29.147Z,99871.47
2023-01-15T12:37:07.316Z,99881.50
2023-01-15T12:39:46.261Z,99883.19
2023-01-15T12:42:36.529Z,99885.00
2023-01-15T12:45:08.555Z,99880.66
2023-01-15T12:47:42.829Z,99879.88
2023-01-15T12:50:36.877Z,99887.84
2023-01-15T12:53:39.171Z,99885.56
2023-01-15T12:56:15.283Z,99890.03
2023-01-15T12:58:53.324Z,99889.13
2023-01-15T13:01:42.487Z,99886.50
2023-01-15T13:04:18.762Z,99882.34
2023-01-15T13:06:51.295Z,99892.44
2023-01-15T13:09:20.699Z,99890.66
2023-01-15T13:11:47.144Z,99887.25
2023-01-15T13:14:18.505Z,99882.97
2023-01-15T13:16:57.996Z,99883.72
2023-01-15T13:19:46.492Z,99897.13
2023-01-15T13:22:22.668Z,99884.34
2023-01-15T13:24:59.839Z,99886.00
2023-01-15T13:27:38.437Z,99897.13
2023-01-15T13:30:16.709Z,99897.88
2023-01-15T13:32:48.576Z,99891.88
2023-01-15T13:35:36.068Z,99887.63
2023-01-15T13:38:08.499Z,99896.16
2023-01-15T13:40:39.922Z,99891.91
2023-01-15T13:43:09.627Z,99891.81
2023-01-15T13:45:42.924Z,99905.22
2023-01-15T13:48:16.950Z,99901.81
2023-01-15T13:50:53.143Z,99899.31
2023-01-15T13:53:44.401Z,99916.19
2023-01-15T13:56:15.207Z,99912.72
2023-01-15T13:58:57.017Z,99916.22
2023-01-15T14:01:26.314Z,99916.34
2023-01-15T14:04:04.167Z,99918.19
2023-01-15T14:06:41.914Z,99918.22
2023-01-15T14:09:30.000Z,99921.69
2023-01-15T14:12:33.953Z,99918.38
2023-01-15T14:15:19.291Z,99917.53
2023-01-15T14:17:57.701Z,99924.31
2023-01-15T14:20:57.344Z,99925.94
2023-01-15T14:23:35.886Z,99922.72
2023-01-15T14:26:41.705Z,99927.19
2023-01-15T14:29:32.885Z,99943.31
2023-01-15T14:32:21.075Z,99946.69
2023-01-15T14:34:56.062Z,99945.28
2023-01-15T14:37:27.735Z,99932.09
2023-01-15T14:39:58.758Z,99954.16
2023-01-15T14:42:49.747Z,99949.22
2023-01-15T14:45:33.341Z,99957.59
2023-01-15T14:48:02.714Z,99956.56
2023-01-15T14:50:40.461Z,99961.47
2023-01-15T14:53:16.043Z,99954.38
2023-01-15T14:56:20.416Z,99969.34
2023-01-15T14:59:43.925Z,99960.75
2023-01-15T15:02:36.244Z,99968.97
2023-01-15T15:05:08.966Z,99958.72
2023-01-15T15:07:53.035Z,99969.66
2023-01-15T15:10:25.660Z,99961.00
2023-01-15T15:13:23.160Z,99960.13
2023-01-15T15:16:04.363Z,99970.22
2023-01-15T15:18:39.111Z,99998.25
2023-01-15T15:21:13.292Z,99998.16
2023-01-15T15:23:47.990Z,99995.72
2023-01-15T15:26:26.327Z,99964.38
2023-01-15T15:29:17.504Z,99972.94
2023-01-15T15:31:49.652Z,99975.47
2023-01-15T15:34:29.991Z,99977.34
2023-01-15T15:37:01.291Z,99973.97
2023-01-15T15:39:46.756Z,99994.41
2023-01-15T15:42:43.686Z,99985.84
2023-01-15T15:45:37.215Z,99989.41
2023-01-15T15:48:32.739Z,99999.78
2023-01-15T15:50:59.898Z,100002.22
2023-01-15T15:53:26.344Z,100014.09
2023-01-15T15:55:56.369Z,100010.72
2023-01-15T15:58:38.486Z,100017.56
2023-01-15T16:01:05.574Z,100012.63
2023-01-15T16:03:33.261Z,100023.88
2023-01-15T16:06:04.783Z,100022.22
2023-01-15T16:08:35.993Z,100028.22
2023-01-15T16:11:06.558Z,100021.50
2023-01-15T16:13:38.045Z,100021.63
2023-01-15T16:16:08.209Z,100026.75
2023-01-15T16:18:36.345Z,100027.69
2023-01-15T16:21:03.186Z,100020.94
2023-01-15T16:23:30.952Z,100026.88
2023-01-15T16:25:57.431Z,100029.47
2023-01-15T16:28:35.848Z,100042.13
2023-01-15T16:31:02.931Z,100040.44
2023-01-15T16:33:29.962Z,100047.97
2023-01-15T16:36:04.479Z,100068.25
2023-01-15T16:38:40.829Z,100050.44
2023-01-15T16:41:18.931Z,100043.84
2023-01-15T16:43:57.255Z,100050.31
2023-01-15T16:46:27.569Z,100045.81
2023-01-15T16:49:21.009Z,100055.63
2023-01-15T16:51:48.239Z,100047.50
2023-01-15T16:54:31.074Z,100049.28
2023-01-15T16:57:23.667Z,100055.25
2023-01-15T17:00:02.641Z,100041.66
2023-01-15T17:02:35.340Z,100039.03
2023-01-15T17:05:23.926Z,100030.50
2023-01-15T17:07:51.978Z,100027.09
2023-01-15T17:10:28.004Z,100037.06
2023-01-15T17:12:58.270Z,100039.22
2023-01-15T17:15:27.726Z,100024.34
2023-01-15T17:17:55.600Z,100040.97
2023-01-15T17:20:27.649Z,100038.41
2023-01-15T17:22:55.168Z,100035.06
2023-01-15T17:25:26.095Z,100042.72
2023-01-15T17:27:56.010Z,100046.91
2023-01-15T17:30:30.636Z,100053.59
2023-01-15T17:32:58.661Z,100056.16
2023-01-15T17:35:29.324Z,100054.47
2023-01-15T17:37:56.211Z,100058.84
2023-01-15T17:40:23.397Z,100056.34
2023-01-15T17:42:50.492Z,100058.03
2023-01-15T17:45:20.951Z,100053.84
2023-01-15T17:47:47.464Z,100050.44
2023-01-15T17:50:14.570Z,100052.13
2023-01-15T17:52:42.710Z,100058.94
2023-01-15T17:55:30.781Z,100059.81
2023-01-15T17:58:16.699Z,100046.34
2023-01-15T18:01:01.987Z,100058.25
2023-01-15T18:03:47.724Z,100074.31
2023-01-15T18:06:16.080Z,100066.69
2023-01-15T18:08:47.717Z,100059.06
2023-01-15T18:11:14.218Z,100061.59
2023-01-15T18:13:43.474Z,100060.81
2023-01-15T18:16:10.670Z,100077.06
2023-01-15T18:18:37.290Z,100065.41
2023-01-15T18:21:04.055Z,100061.25
2023-01-15T18:23:34.342Z,100061.31
2023-01-15T18:26:04.821Z,100064.81
2023-01-15T18:28:32.846Z,100068.25
2023-01-15T18:30:59.428Z,100060.69
2023-01-15T18:33:25.849Z,100060.72
2023-01-15T18:36:05.894Z,100059.97
2023-01-15T18:38:37.777Z,100065.06
2023-01-15T18:41:44.550Z,100064.16
2023-01-15T18:44:32.943Z,100052.19
2023-01-15T18:47:05.327Z,100048.75
2023-01-15T18:49:32.168Z,100059.78
2023-01-15T18:52:17.550Z,100058.13
2023-01-15T18:54:44.047Z,100055.63
2023-01-15T18:57:10.840Z,100048.81
2023-01-15T18:59:37.295Z,100048.91
2023-01-15T19:02:04.809Z,100050.63
2023-01-15T19:04:31.288Z,100047.41
2023-01-15T19:06:58.199Z,100047.50
2023-01-15T19:09:24.652Z,100056.06
2023-01-15T19:11:52.327Z,100058.75
2023-01-15T19:14:38.145Z,100051.19
2023-01-15T19:17:23.088Z,100048.72
2023-01-15T19:19:49.507Z,100055.63
2023-01-15T19:22:34.856Z,100050.63
2023-01-15T19:25:01.327Z,100041.41
2023-01-15T19:27:27.790Z,100038.13
2023-01-15T19:29:54.256Z,100043.25
2023-01-15T19:32:20.621Z,100043.25
2023-01-15T19:34:47.363Z,100045.00
2023-01-15T19:37:13.837Z,100034.94
2023-01-15T19:39:40.179Z,100029.88
2023-01-15T19:42:25.269Z,100027.38
2023-01-15T19:45:10.162Z,100016.38
2023-01-15T19:47:58.393Z,100026.56
2023-01-15T19:50:36.902Z,100026.69
2023-01-15T19:53:03.608Z,100032.69
2023-01-15T19:55:31.699Z,100025.03
2023-01-15T19:58:05.396Z,100025.09
2023-01-15T20:00:34.912Z,100029.38
2023-01-15T20:03:03.974Z,100013.38
2023-01-15T20:05:32.492Z,100013.47
2023-01-15T20:07:59.176Z,100007.66
2023-01-15T20:10:27.305Z,100002.59
2023-01-15T20:13:12.501Z,99998.41
2023-01-15T20:15:41.065Z,99999.25
2023-01-15T20:18:07.454Z,100001.88
2023-01-15T20:20:34.478Z,99999.41
2023-01-15T20:23:01.726Z,99986.72
2023-01-15T20:25:29.388Z,99995.25
2023-01-15T20:27:57.904Z,99985.16
2023-01-15T20:30:26.317Z,99985.19
2023-01-15T20:32:55.051Z,99981.81
2023-01-15T20:35:27.436Z,99981.03
2023-01-15T20:37:53.865Z,99982.75
2023-01-15T20:40:23.135Z,99980.25
2023-01-15T20:43:08.162Z,99975.25
2023-01-15T20:45:34.603Z,99969.38
2023-01-15T20:48:13.548Z,99961.84
2023-01-15T20:51:01.133Z,99963.47
2023-01-15T20:53:35.568Z,99955.91
2023-01-15T20:56:03.204Z,99958.50
2023-01-15T20:58:29.814Z,99953.44
2023-01-15T21:01:03.259Z,99949.19
2023-01-15T21:03:29.909Z,99950.03
2023-01-15T21:05:57.783Z,99949.16
2023-01-15T21:08:24.302Z,99942.50
2023-01-15T21:10:54.451Z,99940.75
2023-01-15T21:13:24.490Z,99934.03
2023-01-15T21:15:59.832Z,99934.13
2023-01-15T21:18:27.534Z,99929.09
2023-01-15T21:20:54.384Z,99932.41
2023-01-15T21:23:21.231Z,99930.50
2023-01-15T21:25:47.755Z,99922.78
2023-01-15T21:28:14.596Z,99920.94
2023-01-15T21:30:44.801Z,99919.94
2023-01-15T21:33:11.706Z,99917.22
2023-01-15T21:35:40.213Z,99918.03
2023-01-15T21:38:08.274Z,99914.53
2023-01-15T21:40:36.687Z,99911.03
2023-01-15T21:43:22.089Z,99899.94
2023-01-15T21:45:50.719Z,99897.41
2023-01-15T21:48:18.710Z,99885.56
2023-01-15T21:50:45.387Z,99881.25
2023-01-15T21:53:12.012Z,99881.22
2023-01-15T21:55:38.536Z,99873.53
2023-01-15T21:58:05.033Z,99860.75
2023-01-15T22:00:31.433Z,99859.88
2023-01-15T22:02:58.574Z,99855.53
2023-01-15T22:05:25.084Z,99848.69
2023-01-15T22:07:51.522Z,99849.41
2023-01-15T22:10:18.529Z,99847.56
2023-01-15T22:12:45.081Z,99839.00
2023-01-15T22:15:12.272Z,99836.38
2023-01-15T22:17:38.790Z,99827.91
2023-01-15T22:20:07.055Z,99823.63
2023-01-15T22:22:36.311Z,99827.03
2023-01-15T22:25:05.256Z,99816.00
2023-01-15T22:27:34.532Z,99815.19
2023-01-15T22:30:01.244Z,99810.88
2023-01-15T22:32:27.703Z,99808.34
2023-01-15T22:34:54.079Z,99806.69
2023-01-15T22:37:20.573Z,99798.16
2023-01-15T22:39:47.098Z,99799.88
2023-01-15T22:42:27.302Z,99790.56
2023-01-15T22:44:56.019Z,99787.16
2023-01-15T22:47:23.203Z,99771.88
2023-01-15T22:49:50.042Z,99774.38
2023-01-15T22:52:17.344Z,99765.03
2023-01-15T22:54:45.153Z,99759.94
2023-01-15T22:57:12.948Z,99750.59
2023-01-15T22:59:39.434Z,99751.38
2023-01-15T23:02:06.687Z,99749.69
2023-01-15T23:04:33.282Z,99741.16
2023-01-15T23:06:59.818Z,99742.00
2023-01-15T23:09:26.380Z,99732.59
2023-01-15T23:11:52.940Z,99731.69
2023-01-15T23:14:21.397Z,99730.84
2023-01-15T23:16:47.989Z,99729.09
2023-01-15T23:19:14.565Z,99727.38
2023-01-15T23:21:41.775Z,99722.28
2023-01-15T23:24:09.175Z,99723.16
2023-01-15T23:26:36.281Z,99723.06
2023-01-15T23:29:03.110Z,99708.63
2023-01-15T23:31:29.748Z,99714.53
2023-01-15T23:33:56.334Z,99705.91
2023-01-15T23:36:23.654Z,99706.75
2023-01-15T23:38:50.112Z,99702.53
2023-01-15T23:41:19.653Z,99695.78
2023-01-15T23:44:04.773Z,99693.19
2023-01-15T23:46:37.567Z,99687.28
2023-01-15T23:49:05.427Z,99688.09
2023-01-15T23:51:32.543Z,99683.06
2023-01-15T23:53:59.888Z,99688.16
2023-01-15T23:56:27.134Z,99683.06
2023-01-15T23:58:53.790Z,99681.44
